< < Back
Terminal Aerodrome Forecast


Current Version              Previous Versions:   1  2  3  4  5  6  7  8  9  

Terminal Aerodrome Forecast

069
FTUS42 KCAE 061739
TAFCAE
TAF
KCAE 061739Z 0618/0718 30009G15KT P6SM VCSH SCT045 BKN060
     FM070000 30006KT P6SM FEW060
     FM071600 29010G15KT P6SM SCT050=

Latest METAR

699
SAUS80 KWBC 061800 CCA
MTRCAE
METAR KCAE 061756Z 33007KT 290V350 10SM FEW055 BKN075 21/07 A2982 RMK
AO2 SLP095 T02110067 10217 20133 58006


USA.gov is the U.S. government's official web portal to all federal, state and local government web resources and services.